createdAt,value
2022-10-30T00:04:13.093Z,6.90
2022-10-30T00:09:20.464Z,6.60
2022-10-30T00:14:24.187Z,6.90
2022-10-30T00:19:27.781Z,6.60
2022-10-30T00:24:31.198Z,6.60
2022-10-30T00:29:34.729Z,7.20
2022-10-30T00:34:38.957Z,7.10
2022-10-30T00:39:44.241Z,7.00
2022-10-30T00:44:50.500Z,6.90
2022-10-30T00:50:03.132Z,7.10
2022-10-30T00:55:12.281Z,6.30
2022-10-30T01:00:17.558Z,6.00
2022-10-30T01:05:25.159Z,6.40
2022-10-30T01:10:29.299Z,6.80
2022-10-30T01:15:38.644Z,7.00
2022-10-30T01:21:02.426Z,6.00
2022-10-30T01:26:26.617Z,6.70
2022-10-30T01:31:42.629Z,6.20
2022-10-30T01:37:16.253Z,6.60
2022-10-30T01:42:44.824Z,6.10
2022-10-30T01:48:04.000Z,6.20
2022-10-30T01:53:43.396Z,6.50
2022-10-30T01:59:18.481Z,5.90
2022-10-30T02:04:22.823Z,5.70
2022-10-30T02:09:27.365Z,5.80
2022-10-30T02:14:36.206Z,5.60
2022-10-30T02:19:40.579Z,6.20
2022-10-30T02:24:45.001Z,6.80
2022-10-30T02:29:49.653Z,6.60
2022-10-30T02:34:53.054Z,6.00
2022-10-30T02:39:56.470Z,6.50
2022-10-30T02:44:59.991Z,6.20
2022-10-30T02:50:03.925Z,5.80
2022-10-30T02:55:08.160Z,6.30
2022-10-30T03:00:13.112Z,6.20
2022-10-30T03:05:17.352Z,6.00
2022-10-30T03:10:20.882Z,6.20
2022-10-30T03:15:24.603Z,5.90
2022-10-30T03:20:27.977Z,5.80
2022-10-30T03:25:31.436Z,5.90
2022-10-30T03:30:35.184Z,6.00
2022-10-30T03:35:40.828Z,5.70
2022-10-30T03:40:44.453Z,5.70
2022-10-30T03:45:49.812Z,5.80
2022-10-30T03:50:55.586Z,6.30
2022-10-30T03:56:01.164Z,6.10
2022-10-30T04:01:10.766Z,6.20
2022-10-30T04:06:16.486Z,6.10
2022-10-30T04:11:20.694Z,6.20
2022-10-30T04:16:24.348Z,5.40
2022-10-30T04:21:28.072Z,5.60
2022-10-30T04:26:31.589Z,6.30
2022-10-30T04:31:35.219Z,5.20
2022-10-30T04:36:38.738Z,6.10
2022-10-30T04:41:42.460Z,6.10
2022-10-30T04:46:53.048Z,5.90
2022-10-30T04:51:56.567Z,6.10
2022-10-30T04:57:00.113Z,6.30
2022-10-30T05:02:04.123Z,5.50
2022-10-30T05:07:08.151Z,6.10
2022-10-30T05:12:11.979Z,5.20
2022-10-30T05:17:24.727Z,5.20
2022-10-30T05:22:28.355Z,5.50
2022-10-30T05:27:31.957Z,5.30
2022-10-30T05:32:35.476Z,6.10
2022-10-30T05:37:38.895Z,5.70
2022-10-30T05:42:48.964Z,6.00
2022-10-30T05:48:01.580Z,6.50
2022-10-30T05:53:13.413Z,5.40
2022-10-30T05:58:17.848Z,5.40
2022-10-30T06:03:22.082Z,5.30
2022-10-30T06:08:25.951Z,5.90
2022-10-30T06:13:37.036Z,6.30
2022-10-30T06:18:47.687Z,6.10
2022-10-30T06:23:51.313Z,5.50
2022-10-30T06:29:30.854Z,6.00
2022-10-30T06:34:34.576Z,5.30
2022-10-30T06:39:43.633Z,5.60
2022-10-30T06:45:07.483Z,5.50
2022-10-30T06:50:15.378Z,6.50
2022-10-30T06:55:21.847Z,5.20
2022-10-30T07:00:46.166Z,5.30
2022-10-30T07:06:26.779Z,5.00
2022-10-30T07:11:30.506Z,5.50
2022-10-30T07:16:39.653Z,5.30
2022-10-30T07:21:43.202Z,6.00
2022-10-30T07:26:47.116Z,5.20
2022-10-30T07:32:16.925Z,5.50
2022-10-30T07:37:31.810Z,5.10
2022-10-30T07:42:41.570Z,5.40
2022-10-30T07:48:02.421Z,5.50
2022-10-30T07:53:26.987Z,5.20
2022-10-30T07:58:35.622Z,4.90
2022-10-30T08:04:01.156Z,4.70
2022-10-30T08:09:10.498Z,5.10
2022-10-30T08:14:15.456Z,5.50
2022-10-30T08:19:18.973Z,4.70
2022-10-30T08:24:25.153Z,4.60
2022-10-30T08:29:29.185Z,5.10
2022-10-30T08:34:35.684Z,4.40
2022-10-30T08:39:49.603Z,4.90
2022-10-30T08:45:12.405Z,5.10
2022-10-30T08:50:50.268Z,4.40
2022-10-30T08:56:03.232Z,5.10
2022-10-30T09:01:21.694Z,5.00
2022-10-30T09:06:45.588Z,4.70
2022-10-30T09:12:12.238Z,5.90
2022-10-30T09:17:21.284Z,7.10
2022-10-30T09:22:26.742Z,5.10
2022-10-30T09:27:46.448Z,5.90
2022-10-30T09:33:05.925Z,6.00
2022-10-30T09:38:34.617Z,5.20
2022-10-30T09:44:11.350Z,5.40
2022-10-30T09:49:44.998Z,6.10
2022-10-30T09:55:32.832Z,5.70
2022-10-30T10:01:08.941Z,6.40
2022-10-30T10:06:27.026Z,5.50
2022-10-30T10:12:15.738Z,6.60
2022-10-30T10:17:50.137Z,6.00
2022-10-30T10:23:00.787Z,5.80
2022-10-30T10:35:19.780Z,5.90
2022-10-30T10:41:08.076Z,5.80
2022-10-30T10:53:04.516Z,5.40
2022-10-30T10:58:48.199Z,6.60
2022-10-30T11:04:47.773Z,5.20
2022-10-30T11:16:30.924Z,5.50
2022-10-30T11:22:00.265Z,5.40
2022-10-30T11:27:28.728Z,6.10
2022-10-30T11:32:38.143Z,6.10
2022-10-30T11:37:49.572Z,5.90
2022-10-30T11:43:18.540Z,5.50
2022-10-30T11:48:36.195Z,5.30
2022-10-30T11:53:49.361Z,5.10
2022-10-30T11:58:56.048Z,5.10
2022-10-30T12:04:16.251Z,5.50
2022-10-30T12:09:30.633Z,5.80
2022-10-30T12:14:34.945Z,5.60
2022-10-30T12:19:47.066Z,5.10
2022-10-30T12:24:59.941Z,5.10
2022-10-30T12:30:20.095Z,5.20
2022-10-30T12:35:32.946Z,6.00
2022-10-30T12:40:42.533Z,5.20
2022-10-30T12:45:51.515Z,5.60
2022-10-30T12:51:18.396Z,5.20
2022-10-30T12:56:33.371Z,5.10
2022-10-30T13:01:52.258Z,5.00
2022-10-30T13:07:19.066Z,5.10
2022-10-30T13:12:38.227Z,5.00
2022-10-30T13:17:44.148Z,5.50
2022-10-30T13:22:58.505Z,5.50
2022-10-30T13:28:21.891Z,5.20
2022-10-30T13:34:12.895Z,5.10
2022-10-30T13:39:33.175Z,5.60
2022-10-30T13:50:37.657Z,4.80
2022-10-30T13:55:42.496Z,4.50
2022-10-30T14:01:06.314Z,5.20
2022-10-30T14:06:16.718Z,5.20
2022-10-30T14:11:20.804Z,5.50
2022-10-30T14:17:16.316Z,5.20
2022-10-30T14:22:25.534Z,4.90
2022-10-30T14:27:32.001Z,5.20
2022-10-30T14:32:38.499Z,5.00
2022-10-30T14:37:41.944Z,5.40
2022-10-30T14:42:54.273Z,5.60
2022-10-30T14:48:20.377Z,6.20
2022-10-30T14:53:43.499Z,5.30
2022-10-30T14:59:09.705Z,5.80
2022-10-30T15:04:46.183Z,5.40
2022-10-30T15:10:08.642Z,5.30
2022-10-30T15:15:19.809Z,5.90
2022-10-30T15:20:27.952Z,6.00
2022-10-30T15:25:55.939Z,6.20
2022-10-30T15:31:01.509Z,6.40
2022-10-30T15:36:16.976Z,7.90
2022-10-30T15:41:21.228Z,7.90
2022-10-30T15:46:26.417Z,8.80
2022-10-30T15:51:30.932Z,8.40
2022-10-30T15:56:59.784Z,8.70
2022-10-30T16:02:19.047Z,8.40
2022-10-30T16:07:25.466Z,7.80
2022-10-30T16:12:32.453Z,8.90
2022-10-30T16:17:36.529Z,8.20
2022-10-30T16:22:41.496Z,8.10
2022-10-30T16:27:46.439Z,6.90
2022-10-30T16:33:17.282Z,7.20
2022-10-30T16:38:40.346Z,7.30
2022-10-30T16:44:08.198Z,7.80
2022-10-30T16:49:24.001Z,8.00
2022-10-30T16:54:31.433Z,8.00
2022-10-30T16:59:44.032Z,8.00
2022-10-30T17:04:57.211Z,7.30
2022-10-30T17:15:16.168Z,7.80
2022-10-30T17:20:19.533Z,8.20
2022-10-30T17:25:35.178Z,8.00
2022-10-30T17:30:45.663Z,8.60
2022-10-30T17:35:49.674Z,7.40
2022-10-30T17:40:53.231Z,7.70
2022-10-30T17:45:57.500Z,8.20
2022-10-30T17:51:02.047Z,7.60
2022-10-30T17:56:17.849Z,7.50
2022-10-30T18:01:24.969Z,7.90
2022-10-30T18:06:29.327Z,8.30
2022-10-30T18:11:33.121Z,8.40
2022-10-30T18:16:36.538Z,7.90
2022-10-30T18:21:40.056Z,8.40
2022-10-30T18:26:47.365Z,8.20
2022-10-30T18:32:08.415Z,8.40
2022-10-30T18:37:24.570Z,9.20
2022-10-30T18:42:40.009Z,9.30
2022-10-30T18:47:44.033Z,9.40
2022-10-30T18:52:48.347Z,8.80
2022-10-30T18:57:55.962Z,9.00
2022-10-30T19:03:06.143Z,9.10
2022-10-30T19:08:13.893Z,8.90
2022-10-30T19:13:20.206Z,9.00
2022-10-30T19:18:28.529Z,8.80
2022-10-30T19:23:34.156Z,9.80
2022-10-30T19:28:42.886Z,8.70
2022-10-30T19:33:57.500Z,9.40
2022-10-30T19:39:20.129Z,9.60
2022-10-30T19:44:30.706Z,10.50
2022-10-30T19:49:34.743Z,9.50
2022-10-30T19:54:39.696Z,10.20
2022-10-30T19:59:45.432Z,9.90
2022-10-30T20:04:50.156Z,10.10
2022-10-30T20:10:14.216Z,10.00
2022-10-30T20:15:23.738Z,10.60
2022-10-30T20:20:38.939Z,10.60
2022-10-30T20:25:46.741Z,10.60
2022-10-30T20:30:57.682Z,10.10
2022-10-30T20:36:14.124Z,10.60
2022-10-30T20:41:40.614Z,10.10
2022-10-30T20:47:02.282Z,11.10
2022-10-30T20:52:31.636Z,10.50
2022-10-30T21:02:49.235Z,11.60
2022-10-30T21:08:15.216Z,12.10
2022-10-30T21:13:35.997Z,12.10
2022-10-30T21:19:07.201Z,12.50
2022-10-30T21:24:15.996Z,12.80
2022-10-30T21:29:28.997Z,11.60
2022-10-30T21:34:41.259Z,12.50
2022-10-30T21:39:58.631Z,12.90
2022-10-30T21:45:17.358Z,11.70
2022-10-30T21:50:53.468Z,12.00
2022-10-30T21:56:23.645Z,12.80
2022-10-30T22:01:48.469Z,13.10
2022-10-30T22:07:06.561Z,12.70
2022-10-30T22:12:16.307Z,11.40
2022-10-30T22:17:23.868Z,10.80
2022-10-30T22:22:32.313Z,12.00
2022-10-30T22:27:36.580Z,10.00
2022-10-30T22:32:40.564Z,9.80
2022-10-30T22:37:47.375Z,10.40
2022-10-30T22:42:50.782Z,10.20
2022-10-30T22:47:54.400Z,10.40
2022-10-30T22:52:59.378Z,9.70
2022-10-30T22:58:04.399Z,9.80
2022-10-30T23:03:09.768Z,10.70
2022-10-30T23:08:16.682Z,10.80
2022-10-30T23:18:33.189Z,10.20
2022-10-30T23:23:45.921Z,9.90
2022-10-30T23:28:53.519Z,10.50
2022-10-30T23:34:00.906Z,10.90
2022-10-30T23:39:08.497Z,10.30
2022-10-30T23:44:16.320Z,9.60
2022-10-30T23:49:21.787Z,9.70
2022-10-30T23:54:26.435Z,9.90
2022-10-30T23:59:34.043Z,9.50
